sensor_id;sensor_type;location;lat;lon;timestamp;temperature;humidity
30304;DHT22;17112;48.636;10.152;2023-02-01T00:02:06;6.00;68.30
30304;DHT22;17112;48.636;10.152;2023-02-01T00:04:32;6.00;68.40
30304;DHT22;17112;48.636;10.152;2023-02-01T00:06:58;5.90;68.50
30304;DHT22;17112;48.636;10.152;2023-02-01T00:09:23;5.90;68.70
30304;DHT22;17112;48.636;10.152;2023-02-01T00:11:49;5.80;68.80
30304;DHT22;17112;48.636;10.152;2023-02-01T00:14:15;5.80;69.00
30304;DHT22;17112;48.636;10.152;2023-02-01T00:16:41;5.80;69.40
30304;DHT22;17112;48.636;10.152;2023-02-01T00:19:12;5.80;69.40
30304;DHT22;17112;48.636;10.152;2023-02-01T00:21:38;5.70;69.40
30304;DHT22;17112;48.636;10.152;2023-02-01T00:24:04;5.70;69.40
30304;DHT22;17112;48.636;10.152;2023-02-01T00:26:34;5.70;69.60
30304;DHT22;17112;48.636;10.152;2023-02-01T00:29:01;5.80;70.00
30304;DHT22;17112;48.636;10.152;2023-02-01T00:31:27;5.80;70.10
30304;DHT22;17112;48.636;10.152;2023-02-01T00:33:53;5.80;70.20
30304;DHT22;17112;48.636;10.152;2023-02-01T00:36:19;5.80;70.30
30304;DHT22;17112;48.636;10.152;2023-02-01T00:38:45;5.80;70.30
30304;DHT22;17112;48.636;10.152;2023-02-01T00:41:16;5.90;70.40
30304;DHT22;17112;48.636;10.152;2023-02-01T00:43:42;5.90;70.50
30304;DHT22;17112;48.636;10.152;2023-02-01T00:46:08;5.90;70.30
30304;DHT22;17112;48.636;10.152;2023-02-01T00:48:34;5.90;70.30
30304;DHT22;17112;48.636;10.152;2023-02-01T00:51:03;6.00;70.60
30304;DHT22;17112;48.636;10.152;2023-02-01T00:53:30;6.00;70.50
30304;DHT22;17112;48.636;10.152;2023-02-01T00:55:56;6.00;70.50
30304;DHT22;17112;48.636;10.152;2023-02-01T00:58:23;6.00;70.40
30304;DHT22;17112;48.636;10.152;2023-02-01T01:01:09;6.00;70.50
30304;DHT22;17112;48.636;10.152;2023-02-01T01:03:38;6.00;70.90
30304;DHT22;17112;48.636;10.152;2023-02-01T01:06:08;6.10;70.50
30304;DHT22;17112;48.636;10.152;2023-02-01T01:08:34;6.10;70.60
30304;DHT22;17112;48.636;10.152;2023-02-01T01:11:05;6.10;70.50
30304;DHT22;17112;48.636;10.152;2023-02-01T01:13:31;6.10;70.60
30304;DHT22;17112;48.636;10.152;2023-02-01T01:16:00;6.10;70.60
30304;DHT22;17112;48.636;10.152;2023-02-01T01:18:32;6.10;70.70
30304;DHT22;17112;48.636;10.152;2023-02-01T01:20:58;6.10;70.80
30304;DHT22;17112;48.636;10.152;2023-02-01T01:23:24;6.20;70.70
30304;DHT22;17112;48.636;10.152;2023-02-01T01:25:50;6.20;70.60
30304;DHT22;17112;48.636;10.152;2023-02-01T01:28:15;6.20;70.70
30304;DHT22;17112;48.636;10.152;2023-02-01T01:30:41;6.20;70.70
30304;DHT22;17112;48.636;10.152;2023-02-01T01:33:07;6.20;70.70
30304;DHT22;17112;48.636;10.152;2023-02-01T01:35:33;6.20;70.70
30304;DHT22;17112;48.636;10.152;2023-02-01T01:38:00;6.20;70.80
30304;DHT22;17112;48.636;10.152;2023-02-01T01:40:27;6.20;70.80
30304;DHT22;17112;48.636;10.152;2023-02-01T01:42:53;6.20;70.80
30304;DHT22;17112;48.636;10.152;2023-02-01T01:45:24;6.20;70.80
30304;DHT22;17112;48.636;10.152;2023-02-01T01:47:56;6.20;70.80
30304;DHT22;17112;48.636;10.152;2023-02-01T01:50:36;6.20;70.70
30304;DHT22;17112;48.636;10.152;2023-02-01T01:53:07;6.20;71.00
30304;DHT22;17112;48.636;10.152;2023-02-01T01:55:37;6.20;70.60
30304;DHT22;17112;48.636;10.152;2023-02-01T01:58:10;6.20;70.70
30304;DHT22;17112;48.636;10.152;2023-02-01T02:00:37;6.20;70.80
30304;DHT22;17112;48.636;10.152;2023-02-01T02:03:25;6.20;70.80
30304;DHT22;17112;48.636;10.152;2023-02-01T02:05:54;6.20;71.10
30304;DHT22;17112;48.636;10.152;2023-02-01T02:08:21;6.20;70.70
30304;DHT22;17112;48.636;10.152;2023-02-01T02:10:50;6.20;70.80
30304;DHT22;17112;48.636;10.152;2023-02-01T02:13:34;6.20;70.80
30304;DHT22;17112;48.636;10.152;2023-02-01T02:16:22;6.20;71.60
30304;DHT22;17112;48.636;10.152;2023-02-01T02:19:09;6.20;71.10
30304;DHT22;17112;48.636;10.152;2023-02-01T02:27:10;6.20;70.50
30304;DHT22;17112;48.636;10.152;2023-02-01T02:32:54;6.20;70.30
30304;DHT22;17112;48.636;10.152;2023-02-01T02:38:29;6.20;70.30
30304;DHT22;17112;48.636;10.152;2023-02-01T02:41:18;6.20;70.40
30304;DHT22;17112;48.636;10.152;2023-02-01T02:44:11;6.20;70.20
30304;DHT22;17112;48.636;10.152;2023-02-01T02:47:02;6.20;70.00
30304;DHT22;17112;48.636;10.152;2023-02-01T02:53:15;6.30;70.30
30304;DHT22;17112;48.636;10.152;2023-02-01T02:56:03;6.30;70.10
30304;DHT22;17112;48.636;10.152;2023-02-01T02:58:48;6.30;69.80
30304;DHT22;17112;48.636;10.152;2023-02-01T03:01:34;6.30;69.70
30304;DHT22;17112;48.636;10.152;2023-02-01T03:04:18;6.30;69.70
30304;DHT22;17112;48.636;10.152;2023-02-01T03:06:45;6.30;69.70
30304;DHT22;17112;48.636;10.152;2023-02-01T03:09:22;6.30;69.70
30304;DHT22;17112;48.636;10.152;2023-02-01T03:11:51;6.30;69.80
30304;DHT22;17112;48.636;10.152;2023-02-01T03:14:41;6.40;69.70
30304;DHT22;17112;48.636;10.152;2023-02-01T03:17:17;6.40;69.60
30304;DHT22;17112;48.636;10.152;2023-02-01T03:19:46;6.40;69.60
30304;DHT22;17112;48.636;10.152;2023-02-01T03:22:22;6.40;69.40
30304;DHT22;17112;48.636;10.152;2023-02-01T03:24:54;6.50;69.50
30304;DHT22;17112;48.636;10.152;2023-02-01T03:27:34;6.50;69.50
30304;DHT22;17112;48.636;10.152;2023-02-01T03:30:19;6.50;69.50
30304;DHT22;17112;48.636;10.152;2023-02-01T03:32:47;6.50;69.40
30304;DHT22;17112;48.636;10.152;2023-02-01T03:38:30;6.50;69.10
30304;DHT22;17112;48.636;10.152;2023-02-01T03:44:04;6.60;69.00
30304;DHT22;17112;48.636;10.152;2023-02-01T03:46:53;6.60;69.00
30304;DHT22;17112;48.636;10.152;2023-02-01T03:49:25;6.60;69.00
30304;DHT22;17112;48.636;10.152;2023-02-01T03:51:53;6.60;69.00
30304;DHT22;17112;48.636;10.152;2023-02-01T03:54:20;6.60;68.90
30304;DHT22;17112;48.636;10.152;2023-02-01T03:56:47;6.60;68.80
30304;DHT22;17112;48.636;10.152;2023-02-01T03:59:14;6.60;68.80
30304;DHT22;17112;48.636;10.152;2023-02-01T04:01:40;6.60;68.80
30304;DHT22;17112;48.636;10.152;2023-02-01T04:04:06;6.60;68.80
30304;DHT22;17112;48.636;10.152;2023-02-01T04:06:32;6.60;68.80
30304;DHT22;17112;48.636;10.152;2023-02-01T04:08:58;6.60;69.00
30304;DHT22;17112;48.636;10.152;2023-02-01T04:11:23;6.60;69.00
30304;DHT22;17112;48.636;10.152;2023-02-01T04:13:49;6.60;69.00
30304;DHT22;17112;48.636;10.152;2023-02-01T04:16:15;6.60;69.00
30304;DHT22;17112;48.636;10.152;2023-02-01T04:18:40;6.60;69.00
30304;DHT22;17112;48.636;10.152;2023-02-01T04:21:06;6.60;68.90
30304;DHT22;17112;48.636;10.152;2023-02-01T04:23:32;6.60;68.90
30304;DHT22;17112;48.636;10.152;2023-02-01T04:26:02;6.60;69.10
30304;DHT22;17112;48.636;10.152;2023-02-01T04:28:28;6.60;69.10
30304;DHT22;17112;48.636;10.152;2023-02-01T04:30:54;6.60;69.10
30304;DHT22;17112;48.636;10.152;2023-02-01T04:33:20;6.60;69.20
30304;DHT22;17112;48.636;10.152;2023-02-01T04:35:45;6.60;69.90
30304;DHT22;17112;48.636;10.152;2023-02-01T04:38:11;6.60;69.20
30304;DHT22;17112;48.636;10.152;2023-02-01T04:40:37;6.60;69.20
30304;DHT22;17112;48.636;10.152;2023-02-01T04:43:03;6.60;69.20
30304;DHT22;17112;48.636;10.152;2023-02-01T04:45:29;6.60;69.30
30304;DHT22;17112;48.636;10.152;2023-02-01T04:47:55;6.50;69.50
30304;DHT22;17112;48.636;10.152;2023-02-01T04:50:21;6.50;69.30
30304;DHT22;17112;48.636;10.152;2023-02-01T04:52:46;6.50;69.30
30304;DHT22;17112;48.636;10.152;2023-02-01T04:55:12;6.50;69.40
30304;DHT22;17112;48.636;10.152;2023-02-01T04:57:39;6.50;69.50
30304;DHT22;17112;48.636;10.152;2023-02-01T05:00:07;6.60;69.70
30304;DHT22;17112;48.636;10.152;2023-02-01T05:02:34;6.50;69.50
30304;DHT22;17112;48.636;10.152;2023-02-01T05:05:00;6.60;69.40
30304;DHT22;17112;48.636;10.152;2023-02-01T05:07:26;6.60;69.50
30304;DHT22;17112;48.636;10.152;2023-02-01T05:09:52;6.60;69.60
30304;DHT22;17112;48.636;10.152;2023-02-01T05:12:17;6.50;69.60
30304;DHT22;17112;48.636;10.152;2023-02-01T05:15:02;6.50;69.50
30304;DHT22;17112;48.636;10.152;2023-02-01T05:17:27;6.60;69.50
30304;DHT22;17112;48.636;10.152;2023-02-01T05:19:53;6.60;69.40
30304;DHT22;17112;48.636;10.152;2023-02-01T05:22:19;6.60;69.50
30304;DHT22;17112;48.636;10.152;2023-02-01T05:24:44;6.60;69.30
30304;DHT22;17112;48.636;10.152;2023-02-01T05:27:10;6.60;69.40
30304;DHT22;17112;48.636;10.152;2023-02-01T05:29:36;6.60;69.30
30304;DHT22;17112;48.636;10.152;2023-02-01T05:32:01;6.60;69.20
30304;DHT22;17112;48.636;10.152;2023-02-01T05:34:27;6.60;69.30
30304;DHT22;17112;48.636;10.152;2023-02-01T05:36:53;6.70;69.20
30304;DHT22;17112;48.636;10.152;2023-02-01T05:39:18;6.70;69.30
30304;DHT22;17112;48.636;10.152;2023-02-01T05:41:44;6.70;69.20
30304;DHT22;17112;48.636;10.152;2023-02-01T05:44:10;6.70;69.20
30304;DHT22;17112;48.636;10.152;2023-02-01T05:46:36;6.70;69.20
30304;DHT22;17112;48.636;10.152;2023-02-01T05:49:03;6.70;69.10
30304;DHT22;17112;48.636;10.152;2023-02-01T05:51:29;6.70;69.10
30304;DHT22;17112;48.636;10.152;2023-02-01T05:53:54;6.80;69.10
30304;DHT22;17112;48.636;10.152;2023-02-01T05:56:20;6.80;69.00
30304;DHT22;17112;48.636;10.152;2023-02-01T05:58:46;6.80;69.00
30304;DHT22;17112;48.636;10.152;2023-02-01T06:01:11;6.80;68.90
30304;DHT22;17112;48.636;10.152;2023-02-01T06:03:37;6.80;68.80
30304;DHT22;17112;48.636;10.152;2023-02-01T06:06:03;6.80;68.90
30304;DHT22;17112;48.636;10.152;2023-02-01T06:08:29;6.80;68.80
30304;DHT22;17112;48.636;10.152;2023-02-01T06:10:59;6.90;68.90
30304;DHT22;17112;48.636;10.152;2023-02-01T06:13:25;6.80;68.80
30304;DHT22;17112;48.636;10.152;2023-02-01T06:15:51;6.80;68.70
30304;DHT22;17112;48.636;10.152;2023-02-01T06:18:16;6.90;68.80
30304;DHT22;17112;48.636;10.152;2023-02-01T06:20:43;6.80;68.80
30304;DHT22;17112;48.636;10.152;2023-02-01T06:23:08;6.80;68.80
30304;DHT22;17112;48.636;10.152;2023-02-01T06:25:34;6.90;68.80
30304;DHT22;17112;48.636;10.152;2023-02-01T06:28:00;6.90;68.70
30304;DHT22;17112;48.636;10.152;2023-02-01T06:30:26;6.90;68.60
30304;DHT22;17112;48.636;10.152;2023-02-01T06:32:52;6.90;68.50
30304;DHT22;17112;48.636;10.152;2023-02-01T06:35:19;6.90;68.50
30304;DHT22;17112;48.636;10.152;2023-02-01T06:37:44;6.90;68.40
30304;DHT22;17112;48.636;10.152;2023-02-01T06:40:11;6.90;68.40
30304;DHT22;17112;48.636;10.152;2023-02-01T06:42:36;6.90;68.40
30304;DHT22;17112;48.636;10.152;2023-02-01T06:45:02;6.90;68.40
30304;DHT22;17112;48.636;10.152;2023-02-01T06:47:28;6.90;69.10
30304;DHT22;17112;48.636;10.152;2023-02-01T06:49:54;6.90;68.30
30304;DHT22;17112;48.636;10.152;2023-02-01T06:52:19;6.90;68.30
30304;DHT22;17112;48.636;10.152;2023-02-01T06:54:45;7.00;68.30
30304;DHT22;17112;48.636;10.152;2023-02-01T06:57:11;7.00;68.20
30304;DHT22;17112;48.636;10.152;2023-02-01T06:59:36;7.00;68.20
30304;DHT22;17112;48.636;10.152;2023-02-01T07:02:02;7.00;68.10
30304;DHT22;17112;48.636;10.152;2023-02-01T07:04:28;7.00;68.00
30304;DHT22;17112;48.636;10.152;2023-02-01T07:06:53;7.00;67.90
30304;DHT22;17112;48.636;10.152;2023-02-01T07:09:19;7.00;67.70
30304;DHT22;17112;48.636;10.152;2023-02-01T07:11:45;7.10;67.80
30304;DHT22;17112;48.636;10.152;2023-02-01T07:14:10;7.10;67.80
30304;DHT22;17112;48.636;10.152;2023-02-01T07:16:36;7.10;67.70
30304;DHT22;17112;48.636;10.152;2023-02-01T07:19:02;7.10;67.80
30304;DHT22;17112;48.636;10.152;2023-02-01T07:21:28;7.20;67.80
30304;DHT22;17112;48.636;10.152;2023-02-01T07:23:54;7.20;67.70
30304;DHT22;17112;48.636;10.152;2023-02-01T07:26:20;7.20;67.60
30304;DHT22;17112;48.636;10.152;2023-02-01T07:28:46;7.20;67.60
30304;DHT22;17112;48.636;10.152;2023-02-01T07:31:15;7.20;67.50
30304;DHT22;17112;48.636;10.152;2023-02-01T07:33:41;7.20;67.40
30304;DHT22;17112;48.636;10.152;2023-02-01T07:36:11;7.30;67.50
30304;DHT22;17112;48.636;10.152;2023-02-01T07:38:38;7.20;67.30
30304;DHT22;17112;48.636;10.152;2023-02-01T07:41:05;7.30;66.90
30304;DHT22;17112;48.636;10.152;2023-02-01T07:43:31;7.30;66.90
30304;DHT22;17112;48.636;10.152;2023-02-01T07:45:58;7.20;67.00
30304;DHT22;17112;48.636;10.152;2023-02-01T07:48:25;7.20;67.10
30304;DHT22;17112;48.636;10.152;2023-02-01T07:51:05;7.20;67.00
30304;DHT22;17112;48.636;10.152;2023-02-01T07:53:32;7.20;66.90
30304;DHT22;17112;48.636;10.152;2023-02-01T07:55:58;7.20;66.60
30304;DHT22;17112;48.636;10.152;2023-02-01T07:58:25;7.30;66.90
30304;DHT22;17112;48.636;10.152;2023-02-01T08:00:51;7.30;66.50
30304;DHT22;17112;48.636;10.152;2023-02-01T08:03:35;7.30;66.70
30304;DHT22;17112;48.636;10.152;2023-02-01T08:06:02;7.30;66.70
30304;DHT22;17112;48.636;10.152;2023-02-01T08:08:27;7.30;66.40
30304;DHT22;17112;48.636;10.152;2023-02-01T08:11:00;7.30;66.40
30304;DHT22;17112;48.636;10.152;2023-02-01T08:13:26;7.30;66.20
30304;DHT22;17112;48.636;10.152;2023-02-01T08:15:52;7.40;66.00
30304;DHT22;17112;48.636;10.152;2023-02-01T08:18:18;7.40;66.00
30304;DHT22;17112;48.636;10.152;2023-02-01T08:20:44;7.40;66.00
30304;DHT22;17112;48.636;10.152;2023-02-01T08:23:11;7.50;65.80
30304;DHT22;17112;48.636;10.152;2023-02-01T08:25:37;7.40;65.40
30304;DHT22;17112;48.636;10.152;2023-02-01T08:28:04;7.50;65.60
30304;DHT22;17112;48.636;10.152;2023-02-01T08:30:30;7.50;65.40
30304;DHT22;17112;48.636;10.152;2023-02-01T08:32:56;7.50;65.30
30304;DHT22;17112;48.636;10.152;2023-02-01T08:35:22;7.50;65.30
30304;DHT22;17112;48.636;10.152;2023-02-01T08:37:49;7.50;65.30
30304;DHT22;17112;48.636;10.152;2023-02-01T08:40:15;7.50;65.00
30304;DHT22;17112;48.636;10.152;2023-02-01T08:42:41;7.60;65.10
30304;DHT22;17112;48.636;10.152;2023-02-01T08:45:16;7.60;65.10
30304;DHT22;17112;48.636;10.152;2023-02-01T08:47:42;7.60;65.00
30304;DHT22;17112;48.636;10.152;2023-02-01T08:50:09;7.60;65.00
30304;DHT22;17112;48.636;10.152;2023-02-01T08:52:35;7.60;64.90
30304;DHT22;17112;48.636;10.152;2023-02-01T08:55:00;7.60;64.90
30304;DHT22;17112;48.636;10.152;2023-02-01T08:57:26;7.60;65.00
30304;DHT22;17112;48.636;10.152;2023-02-01T08:59:52;7.60;64.80
30304;DHT22;17112;48.636;10.152;2023-02-01T09:02:17;7.60;64.80
30304;DHT22;17112;48.636;10.152;2023-02-01T09:04:43;7.60;64.70
30304;DHT22;17112;48.636;10.152;2023-02-01T09:07:09;7.70;64.30
30304;DHT22;17112;48.636;10.152;2023-02-01T09:09:37;7.70;64.50
30304;DHT22;17112;48.636;10.152;2023-02-01T09:12:04;7.70;64.60
30304;DHT22;17112;48.636;10.152;2023-02-01T09:14:30;7.70;64.60
30304;DHT22;17112;48.636;10.152;2023-02-01T09:16:55;7.70;64.50
30304;DHT22;17112;48.636;10.152;2023-02-01T09:19:21;7.70;64.30
30304;DHT22;17112;48.636;10.152;2023-02-01T09:21:47;7.70;64.30
30304;DHT22;17112;48.636;10.152;2023-02-01T09:24:13;7.80;64.20
30304;DHT22;17112;48.636;10.152;2023-02-01T09:26:38;7.80;64.10
30304;DHT22;17112;48.636;10.152;2023-02-01T09:29:05;7.80;64.00
30304;DHT22;17112;48.636;10.152;2023-02-01T09:31:38;7.80;64.00
30304;DHT22;17112;48.636;10.152;2023-02-01T09:34:05;7.80;63.80
30304;DHT22;17112;48.636;10.152;2023-02-01T09:36:31;7.80;63.60
30304;DHT22;17112;48.636;10.152;2023-02-01T09:38:57;7.80;63.40
30304;DHT22;17112;48.636;10.152;2023-02-01T09:46:48;7.90;63.60
30304;DHT22;17112;48.636;10.152;2023-02-01T09:49:18;7.90;63.70
30304;DHT22;17112;48.636;10.152;2023-02-01T09:51:46;8.00;63.40
30304;DHT22;17112;48.636;10.152;2023-02-01T09:54:18;8.00;63.20
30304;DHT22;17112;48.636;10.152;2023-02-01T10:01:50;8.10;63.40
30304;DHT22;17112;48.636;10.152;2023-02-01T10:04:16;8.20;63.20
30304;DHT22;17112;48.636;10.152;2023-02-01T10:23:58;8.20;61.80
30304;DHT22;17112;48.636;10.152;2023-02-01T10:26:31;8.20;62.00
30304;DHT22;17112;48.636;10.152;2023-02-01T10:29:03;8.10;61.80
30304;DHT22;17112;48.636;10.152;2023-02-01T10:31:31;8.10;62.00
30304;DHT22;17112;48.636;10.152;2023-02-01T10:34:01;8.10;62.00
30304;DHT22;17112;48.636;10.152;2023-02-01T10:36:40;8.00;62.30
30304;DHT22;17112;48.636;10.152;2023-02-01T10:39:06;8.00;62.50
30304;DHT22;17112;48.636;10.152;2023-02-01T10:41:39;8.00;62.50
30304;DHT22;17112;48.636;10.152;2023-02-01T10:44:12;8.00;62.50
30304;DHT22;17112;48.636;10.152;2023-02-01T10:46:38;8.00;62.50
30304;DHT22;17112;48.636;10.152;2023-02-01T10:49:08;8.00;62.50
30304;DHT22;17112;48.636;10.152;2023-02-01T10:51:54;8.00;62.60
30304;DHT22;17112;48.636;10.152;2023-02-01T10:54:32;7.90;62.50
30304;DHT22;17112;48.636;10.152;2023-02-01T10:56:57;7.90;62.40
30304;DHT22;17112;48.636;10.152;2023-02-01T10:59:29;7.90;62.50
30304;DHT22;17112;48.636;10.152;2023-02-01T11:02:00;7.90;62.50
30304;DHT22;17112;48.636;10.152;2023-02-01T11:04:33;7.90;62.60
30304;DHT22;17112;48.636;10.152;2023-02-01T11:07:12;7.90;62.70
30304;DHT22;17112;48.636;10.152;2023-02-01T11:09:40;7.90;62.30
30304;DHT22;17112;48.636;10.152;2023-02-01T11:12:22;7.90;62.30
30304;DHT22;17112;48.636;10.152;2023-02-01T11:14:49;7.90;62.00
30304;DHT22;17112;48.636;10.152;2023-02-01T11:17:17;7.90;62.60
30304;DHT22;17112;48.636;10.152;2023-02-01T11:19:59;7.80;61.90
30304;DHT22;17112;48.636;10.152;2023-02-01T11:22:26;7.80;62.00
30304;DHT22;17112;48.636;10.152;2023-02-01T11:24:53;7.80;62.00
30304;DHT22;17112;48.636;10.152;2023-02-01T11:27:21;7.80;61.80
30304;DHT22;17112;48.636;10.152;2023-02-01T11:29:50;7.90;62.00
30304;DHT22;17112;48.636;10.152;2023-02-01T11:32:18;7.90;62.30
30304;DHT22;17112;48.636;10.152;2023-02-01T11:34:59;7.90;61.80
30304;DHT22;17112;48.636;10.152;2023-02-01T11:37:32;7.90;61.30
30304;DHT22;17112;48.636;10.152;2023-02-01T11:40:00;7.90;62.50
30304;DHT22;17112;48.636;10.152;2023-02-01T11:42:28;8.00;60.60
30304;DHT22;17112;48.636;10.152;2023-02-01T11:45:20;8.00;61.60
30304;DHT22;17112;48.636;10.152;2023-02-01T11:47:46;8.00;61.60
30304;DHT22;17112;48.636;10.152;2023-02-01T11:50:54;8.00;61.80
30304;DHT22;17112;48.636;10.152;2023-02-01T12:01:37;8.00;61.30
30304;DHT22;17112;48.636;10.152;2023-02-01T12:06:58;8.00;61.00
30304;DHT22;17112;48.636;10.152;2023-02-01T12:09:52;8.00;61.40
30304;DHT22;17112;48.636;10.152;2023-02-01T12:36:54;8.00;59.90
30304;DHT22;17112;48.636;10.152;2023-02-01T12:39:32;8.00;60.40
30304;DHT22;17112;48.636;10.152;2023-02-01T12:47:33;8.00;60.40
30304;DHT22;17112;48.636;10.152;2023-02-01T12:52:51;8.10;60.30
30304;DHT22;17112;48.636;10.152;2023-02-01T12:55:36;8.10;59.90
30304;DHT22;17112;48.636;10.152;2023-02-01T12:58:11;8.10;59.60
30304;DHT22;17112;48.636;10.152;2023-02-01T13:00:47;8.10;59.90
30304;DHT22;17112;48.636;10.152;2023-02-01T13:03:38;8.10;59.80
30304;DHT22;17112;48.636;10.152;2023-02-01T13:06:22;8.20;59.80
30304;DHT22;17112;48.636;10.152;2023-02-01T13:09:07;8.20;59.90
30304;DHT22;17112;48.636;10.152;2023-02-01T13:11:38;8.20;60.00
30304;DHT22;17112;48.636;10.152;2023-02-01T13:14:28;8.20;59.80
30304;DHT22;17112;48.636;10.152;2023-02-01T13:17:19;8.20;59.30
30304;DHT22;17112;48.636;10.152;2023-02-01T13:19:54;8.10;59.00
30304;DHT22;17112;48.636;10.152;2023-02-01T13:24:59;8.10;59.20
30304;DHT22;17112;48.636;10.152;2023-02-01T13:27:27;8.10;58.80
30304;DHT22;17112;48.636;10.152;2023-02-01T13:30:11;8.00;58.80
30304;DHT22;17112;48.636;10.152;2023-02-01T13:38:39;8.00;58.90
30304;DHT22;17112;48.636;10.152;2023-02-01T13:41:23;8.00;59.20
30304;DHT22;17112;48.636;10.152;2023-02-01T13:44:17;7.90;59.10
30304;DHT22;17112;48.636;10.152;2023-02-01T13:46:45;7.90;59.20
30304;DHT22;17112;48.636;10.152;2023-02-01T13:49:27;7.90;59.30
30304;DHT22;17112;48.636;10.152;2023-02-01T13:51:56;7.90;59.50
30304;DHT22;17112;48.636;10.152;2023-02-01T13:54:34;7.90;59.60
30304;DHT22;17112;48.636;10.152;2023-02-01T13:57:03;7.80;59.30
30304;DHT22;17112;48.636;10.152;2023-02-01T14:10:55;7.80;59.70
30304;DHT22;17112;48.636;10.152;2023-02-01T14:13:31;7.80;59.80
30304;DHT22;17112;48.636;10.152;2023-02-01T14:21:30;7.70;59.90
30304;DHT22;17112;48.636;10.152;2023-02-01T14:31:44;7.70;60.10
30304;DHT22;17112;48.636;10.152;2023-02-01T14:44:53;7.80;60.10
30304;DHT22;17112;48.636;10.152;2023-02-01T14:52:40;7.80;60.00
30304;DHT22;17112;48.636;10.152;2023-02-01T14:55:16;7.80;60.00
30304;DHT22;17112;48.636;10.152;2023-02-01T14:57:46;7.80;59.90
30304;DHT22;17112;48.636;10.152;2023-02-01T15:00:24;7.80;59.90
30304;DHT22;17112;48.636;10.152;2023-02-01T15:02:52;7.80;59.80
30304;DHT22;17112;48.636;10.152;2023-02-01T15:07:47;7.80;60.00
30304;DHT22;17112;48.636;10.152;2023-02-01T15:10:12;7.80;60.00
30304;DHT22;17112;48.636;10.152;2023-02-01T15:12:40;7.70;60.20
30304;DHT22;17112;48.636;10.152;2023-02-01T15:15:22;7.70;60.30
30304;DHT22;17112;48.636;10.152;2023-02-01T15:17:56;7.80;60.40
30304;DHT22;17112;48.636;10.152;2023-02-01T15:20:26;7.80;60.10
30304;DHT22;17112;48.636;10.152;2023-02-01T15:23:16;7.70;59.80
30304;DHT22;17112;48.636;10.152;2023-02-01T15:25:45;7.70;59.70
30304;DHT22;17112;48.636;10.152;2023-02-01T15:28:14;7.70;59.60
30304;DHT22;17112;48.636;10.152;2023-02-01T15:30:40;7.70;60.00
30304;DHT22;17112;48.636;10.152;2023-02-01T15:33:17;7.70;60.20
30304;DHT22;17112;48.636;10.152;2023-02-01T15:35:49;7.70;60.20
30304;DHT22;17112;48.636;10.152;2023-02-01T15:38:31;7.60;60.20
30304;DHT22;17112;48.636;10.152;2023-02-01T15:43:42;7.70;60.20
30304;DHT22;17112;48.636;10.152;2023-02-01T15:46:15;7.70;60.40
30304;DHT22;17112;48.636;10.152;2023-02-01T15:48:47;7.60;60.30
30304;DHT22;17112;48.636;10.152;2023-02-01T15:51:18;7.70;60.00
30304;DHT22;17112;48.636;10.152;2023-02-01T15:53:52;7.60;60.20
30304;DHT22;17112;48.636;10.152;2023-02-01T15:56:23;7.60;60.20
30304;DHT22;17112;48.636;10.152;2023-02-01T15:58:53;7.70;60.40
30304;DHT22;17112;48.636;10.152;2023-02-01T16:01:20;7.60;60.20
30304;DHT22;17112;48.636;10.152;2023-02-01T16:03:46;7.60;60.40
30304;DHT22;17112;48.636;10.152;2023-02-01T16:08:52;7.60;60.60
30304;DHT22;17112;48.636;10.152;2023-02-01T16:11:28;7.60;60.80
30304;DHT22;17112;48.636;10.152;2023-02-01T16:13:56;7.50;60.80
30304;DHT22;17112;48.636;10.152;2023-02-01T16:16:23;7.90;61.10
30304;DHT22;17112;48.636;10.152;2023-02-01T16:18:49;7.50;60.90
30304;DHT22;17112;48.636;10.152;2023-02-01T16:21:15;7.50;61.00
30304;DHT22;17112;48.636;10.152;2023-02-01T16:23:40;7.50;61.10
30304;DHT22;17112;48.636;10.152;2023-02-01T16:26:06;7.50;61.10
30304;DHT22;17112;48.636;10.152;2023-02-01T16:28:32;7.50;61.20
30304;DHT22;17112;48.636;10.152;2023-02-01T16:30:58;7.50;61.30
30304;DHT22;17112;48.636;10.152;2023-02-01T16:33:25;7.50;61.30
30304;DHT22;17112;48.636;10.152;2023-02-01T16:35:51;7.50;61.30
30304;DHT22;17112;48.636;10.152;2023-02-01T16:38:19;7.40;61.40
30304;DHT22;17112;48.636;10.152;2023-02-01T16:40:48;7.40;61.50
30304;DHT22;17112;48.636;10.152;2023-02-01T16:43:24;7.40;61.50
30304;DHT22;17112;48.636;10.152;2023-02-01T16:45:53;7.40;61.60
30304;DHT22;17112;48.636;10.152;2023-02-01T16:48:30;7.40;61.70
30304;DHT22;17112;48.636;10.152;2023-02-01T16:51:02;7.40;61.60
30304;DHT22;17112;48.636;10.152;2023-02-01T16:53:31;7.40;61.70
30304;DHT22;17112;48.636;10.152;2023-02-01T16:55:57;7.40;61.70
30304;DHT22;17112;48.636;10.152;2023-02-01T16:58:24;7.40;61.60
30304;DHT22;17112;48.636;10.152;2023-02-01T17:00:50;7.40;61.60
30304;DHT22;17112;48.636;10.152;2023-02-01T17:03:19;7.40;61.60
30304;DHT22;17112;48.636;10.152;2023-02-01T17:05:51;7.40;61.70
30304;DHT22;17112;48.636;10.152;2023-02-01T17:08:22;7.40;61.60
30304;DHT22;17112;48.636;10.152;2023-02-01T17:10:50;7.40;61.50
30304;DHT22;17112;48.636;10.152;2023-02-01T17:13:16;7.40;61.60
30304;DHT22;17112;48.636;10.152;2023-02-01T17:15:56;7.40;61.50
30304;DHT22;17112;48.636;10.152;2023-02-01T17:18:23;7.40;61.50
30304;DHT22;17112;48.636;10.152;2023-02-01T17:20:50;7.40;61.40
30304;DHT22;17112;48.636;10.152;2023-02-01T17:23:18;7.40;61.40
30304;DHT22;17112;48.636;10.152;2023-02-01T17:25:44;7.40;61.40
30304;DHT22;17112;48.636;10.152;2023-02-01T17:28:10;7.40;61.40
30304;DHT22;17112;48.636;10.152;2023-02-01T17:30:37;7.40;61.40
30304;DHT22;17112;48.636;10.152;2023-02-01T17:33:03;7.40;61.30
30304;DHT22;17112;48.636;10.152;2023-02-01T17:35:29;7.40;61.20
30304;DHT22;17112;48.636;10.152;2023-02-01T17:37:56;7.40;61.30
30304;DHT22;17112;48.636;10.152;2023-02-01T17:40:22;7.40;61.30
30304;DHT22;17112;48.636;10.152;2023-02-01T17:42:49;7.40;61.10
30304;DHT22;17112;48.636;10.152;2023-02-01T17:45:27;7.40;61.20
30304;DHT22;17112;48.636;10.152;2023-02-01T17:47:57;7.30;61.10
30304;DHT22;17112;48.636;10.152;2023-02-01T17:50:26;7.30;61.10
30304;DHT22;17112;48.636;10.152;2023-02-01T17:52:52;7.30;61.10
30304;DHT22;17112;48.636;10.152;2023-02-01T17:55:21;7.30;61.10
30304;DHT22;17112;48.636;10.152;2023-02-01T17:57:48;7.30;61.20
30304;DHT22;17112;48.636;10.152;2023-02-01T18:00:15;7.30;61.20
30304;DHT22;17112;48.636;10.152;2023-02-01T18:02:41;7.30;61.30
30304;DHT22;17112;48.636;10.152;2023-02-01T18:07:40;7.20;61.00
30304;DHT22;17112;48.636;10.152;2023-02-01T18:10:06;7.20;61.10
30304;DHT22;17112;48.636;10.152;2023-02-01T18:12:32;7.30;61.20
30304;DHT22;17112;48.636;10.152;2023-02-01T18:14:58;7.20;61.00
30304;DHT22;17112;48.636;10.152;2023-02-01T18:17:23;7.30;60.70
30304;DHT22;17112;48.636;10.152;2023-02-01T18:19:49;7.30;61.10